createdAt,value
2023-01-18T00:02:11.816Z,68.90
2023-01-18T00:04:35.439Z,84.70
2023-01-18T00:06:59.045Z,82.33
2023-01-18T00:09:22.782Z,72.47
2023-01-18T00:11:46.318Z,81.80
2023-01-18T00:14:11.318Z,86.53
2023-01-18T00:16:35.127Z,80.23
2023-01-18T00:19:00.857Z,76.67
2023-01-18T00:21:25.343Z,78.93
2023-01-18T00:23:48.958Z,81.87
2023-01-18T00:26:14.047Z,79.77
2023-01-18T00:28:38.440Z,80.03
2023-01-18T00:31:03.592Z,81.50
2023-01-18T00:33:27.227Z,85.67
2023-01-18T00:35:57.901Z,79.40
2023-01-18T00:38:21.491Z,77.53
2023-01-18T00:40:47.253Z,75.80
2023-01-18T00:43:28.023Z,77.53
2023-01-18T00:45:51.677Z,71.07
2023-01-18T00:48:16.635Z,71.70
2023-01-18T00:50:40.299Z,69.33
2023-01-18T00:53:03.914Z,74.40
2023-01-18T00:55:28.028Z,67.87
2023-01-18T00:57:51.645Z,72.43
2023-01-18T01:00:16.345Z,64.00
2023-01-18T01:02:41.107Z,64.83
2023-01-18T01:05:24.299Z,60.63
2023-01-18T01:07:50.188Z,57.43
2023-01-18T01:10:13.690Z,64.43
2023-01-18T01:12:55.149Z,62.53
2023-01-18T01:15:36.371Z,59.73
2023-01-18T01:18:17.284Z,61.67
2023-01-18T01:20:59.783Z,57.17
2023-01-18T01:23:42.718Z,53.53
2023-01-18T01:26:08.333Z,54.60
2023-01-18T01:28:31.891Z,60.23
2023-01-18T01:31:00.463Z,56.47
2023-01-18T01:33:24.435Z,54.30
2023-01-18T01:35:49.953Z,55.23
2023-01-18T01:38:13.504Z,45.83
2023-01-18T01:40:37.145Z,53.17
2023-01-18T01:43:00.657Z,51.40
2023-01-18T01:45:26.893Z,53.30
2023-01-18T01:47:50.442Z,48.60
2023-01-18T01:50:21.067Z,51.10
2023-01-18T01:52:48.806Z,50.93
2023-01-18T01:55:18.217Z,54.47
2023-01-18T01:57:46.767Z,49.17
2023-01-18T02:00:13.382Z,43.87
2023-01-18T02:02:38.046Z,44.80
2023-01-18T02:05:04.806Z,44.40
2023-01-18T02:07:29.763Z,44.13
2023-01-18T02:09:56.826Z,44.20
2023-01-18T02:12:21.167Z,49.50
2023-01-18T02:14:44.861Z,46.57
2023-01-18T02:17:28.352Z,45.43
2023-01-18T02:20:52.032Z,41.43
2023-01-18T02:24:10.266Z,39.87
2023-01-18T02:26:54.427Z,42.33
2023-01-18T02:29:23.190Z,39.97
2023-01-18T02:32:09.529Z,42.43
2023-01-18T02:34:42.011Z,39.87
2023-01-18T02:37:12.485Z,44.33
2023-01-18T02:39:45.167Z,44.50
2023-01-18T02:42:36.062Z,42.60
2023-01-18T02:45:21.519Z,38.83
2023-01-18T02:47:46.686Z,42.07
2023-01-18T02:50:12.114Z,43.73
2023-01-18T02:52:47.244Z,53.37
2023-01-18T02:55:19.255Z,50.33
2023-01-18T02:57:42.923Z,43.53
2023-01-18T03:00:12.859Z,41.17
2023-01-18T03:02:37.411Z,40.83
2023-01-18T03:05:00.996Z,38.80
2023-01-18T03:07:30.082Z,41.70
2023-01-18T03:09:55.672Z,43.27
2023-01-18T03:12:45.981Z,45.20
2023-01-18T03:15:20.229Z,40.20
2023-01-18T03:17:49.236Z,41.87
2023-01-18T03:20:17.078Z,41.53
2023-01-18T03:23:04.336Z,37.97
2023-01-18T03:25:31.979Z,41.27
2023-01-18T03:28:14.262Z,37.80
2023-01-18T03:30:58.831Z,38.30
2023-01-18T03:33:45.726Z,45.37
2023-01-18T03:36:16.272Z,40.60
2023-01-18T03:38:42.408Z,45.43
2023-01-18T03:41:08.071Z,38.17
2023-01-18T03:43:37.893Z,36.80
2023-01-18T03:46:03.802Z,41.63
2023-01-18T03:48:27.395Z,37.93
2023-01-18T03:50:53.578Z,40.03
2023-01-18T03:53:32.852Z,41.43
2023-01-18T03:56:02.897Z,38.43
2023-01-18T03:58:36.230Z,36.20
2023-01-18T04:01:00.312Z,40.13
2023-01-18T04:03:25.251Z,37.87
2023-01-18T04:05:49.114Z,35.60
2023-01-18T04:08:12.616Z,31.80
2023-01-18T04:10:36.250Z,36.63
2023-01-18T04:13:00.275Z,39.77
2023-01-18T04:15:24.589Z,36.43
2023-01-18T04:17:49.805Z,36.63
2023-01-18T04:20:15.050Z,33.03
2023-01-18T04:22:38.680Z,36.50
2023-01-18T04:25:02.285Z,38.93
2023-01-18T04:27:26.247Z,36.53
2023-01-18T04:29:49.813Z,40.60
2023-01-18T04:32:13.412Z,38.20
2023-01-18T04:34:37.112Z,35.53
2023-01-18T04:37:02.337Z,35.77
2023-01-18T04:39:26.355Z,35.13
2023-01-18T04:41:49.971Z,38.27
2023-01-18T04:44:14.016Z,37.03
2023-01-18T04:46:38.399Z,36.03
2023-01-18T04:49:02.224Z,40.17
2023-01-18T04:51:27.289Z,36.97
2023-01-18T04:53:52.808Z,32.67
2023-01-18T04:56:16.923Z,33.77
2023-01-18T04:58:40.568Z,36.13
2023-01-18T05:01:04.632Z,33.77
2023-01-18T05:03:28.282Z,40.13
2023-01-18T05:05:52.707Z,34.90
2023-01-18T05:08:16.284Z,37.03
2023-01-18T05:10:41.181Z,36.87
2023-01-18T05:13:04.901Z,36.23
2023-01-18T05:15:28.435Z,32.80
2023-01-18T05:17:52.018Z,32.73
2023-01-18T05:20:15.700Z,35.87
2023-01-18T05:22:39.404Z,34.30
2023-01-18T05:25:02.933Z,36.50
2023-01-18T05:27:27.885Z,32.33
2023-01-18T05:29:51.913Z,36.60
2023-01-18T05:32:15.603Z,35.70
2023-01-18T05:34:39.142Z,36.17
2023-01-18T05:37:04.551Z,32.47
2023-01-18T05:39:28.064Z,30.47
2023-01-18T05:41:51.852Z,30.90
2023-01-18T05:44:16.763Z,36.23
2023-01-18T05:46:40.371Z,37.33
2023-01-18T05:49:03.913Z,29.73
2023-01-18T05:51:27.498Z,34.10
2023-01-18T05:53:51.113Z,32.67
2023-01-18T05:56:15.253Z,33.83
2023-01-18T05:58:39.088Z,32.17
2023-01-18T06:01:04.505Z,35.97
2023-01-18T06:03:28.148Z,28.40
2023-01-18T06:05:52.604Z,29.37
2023-01-18T06:08:16.553Z,32.93
2023-01-18T06:10:40.467Z,31.03
2023-01-18T06:13:04.029Z,32.97
2023-01-18T06:15:27.712Z,27.97
2023-01-18T06:17:52.654Z,30.80
2023-01-18T06:20:17.068Z,31.97
2023-01-18T06:22:40.774Z,27.80
2023-01-18T06:25:04.456Z,32.47
2023-01-18T06:27:28.086Z,30.63
2023-01-18T06:29:52.012Z,32.60
2023-01-18T06:32:15.967Z,34.23
2023-01-18T06:34:40.973Z,35.90
2023-01-18T06:37:05.291Z,33.50
2023-01-18T06:39:28.838Z,33.57
2023-01-18T06:41:52.499Z,35.13
2023-01-18T06:44:16.203Z,32.47
2023-01-18T06:46:39.717Z,34.40
2023-01-18T06:49:03.352Z,33.83
2023-01-18T06:51:28.271Z,34.40
2023-01-18T06:53:51.868Z,30.07
2023-01-18T06:56:15.936Z,34.40
2023-01-18T06:58:39.620Z,34.80
2023-01-18T07:01:03.386Z,37.77
2023-01-18T07:03:29.026Z,36.07
2023-01-18T07:05:54.747Z,37.50
2023-01-18T07:08:21.013Z,31.90
2023-01-18T07:10:44.546Z,30.83
2023-01-18T07:13:08.152Z,32.70
2023-01-18T07:15:31.817Z,31.33
2023-01-18T07:17:55.382Z,33.03
2023-01-18T07:20:19.979Z,30.53
2023-01-18T07:22:43.828Z,33.33
2023-01-18T07:25:13.264Z,34.47
2023-01-18T07:27:36.965Z,27.87
2023-01-18T07:30:00.668Z,35.93
2023-01-18T07:32:24.359Z,36.00
2023-01-18T07:34:47.882Z,27.63
2023-01-18T07:37:11.487Z,32.87
2023-01-18T07:39:35.039Z,41.73
2023-01-18T07:42:00.040Z,31.80
2023-01-18T07:44:24.146Z,41.27
2023-01-18T07:46:47.723Z,34.73
2023-01-18T07:49:11.361Z,31.70
2023-01-18T07:51:35.179Z,31.27
2023-01-18T07:53:58.790Z,25.67
2023-01-18T07:56:22.939Z,30.40
2023-01-18T07:58:48.223Z,24.30
2023-01-18T08:01:15.162Z,26.20
2023-01-18T08:03:39.442Z,24.07
2023-01-18T08:06:07.118Z,26.30
2023-01-18T08:08:31.724Z,24.47
2023-01-18T08:10:56.964Z,25.87
2023-01-18T08:13:20.559Z,25.53
2023-01-18T08:15:45.537Z,23.20
2023-01-18T08:18:09.641Z,29.17
2023-01-18T08:20:33.991Z,21.90
2023-01-18T08:22:59.051Z,27.40
2023-01-18T08:25:22.807Z,19.83
2023-01-18T08:27:46.334Z,24.73
2023-01-18T08:30:11.996Z,22.73
2023-01-18T08:32:37.078Z,18.57
2023-01-18T08:35:00.968Z,21.50
2023-01-18T08:37:24.815Z,16.97
2023-01-18T08:39:48.420Z,17.90
2023-01-18T08:42:13.284Z,16.20
2023-01-18T08:44:36.985Z,18.97
2023-01-18T08:47:00.556Z,20.03
2023-01-18T08:49:25.580Z,20.17
2023-01-18T08:51:49.189Z,17.23
2023-01-18T08:54:12.816Z,14.87
2023-01-18T08:56:36.441Z,17.73
2023-01-18T08:59:00.218Z,18.80
2023-01-18T09:01:24.210Z,28.00
2023-01-18T09:03:50.586Z,21.10
2023-01-18T09:06:16.834Z,18.23
2023-01-18T09:08:40.488Z,19.00
2023-01-18T09:11:05.031Z,24.23
2023-01-18T09:13:28.596Z,21.00
2023-01-18T09:16:00.587Z,20.43
2023-01-18T09:18:24.349Z,21.07
2023-01-18T09:20:47.867Z,56.00
2023-01-18T09:23:12.870Z,21.40
2023-01-18T09:25:37.007Z,22.80
2023-01-18T09:28:02.650Z,18.30
2023-01-18T09:30:26.223Z,14.23
2023-01-18T09:32:49.785Z,17.53
2023-01-18T09:35:18.073Z,13.70
2023-01-18T09:37:41.652Z,17.70
2023-01-18T09:40:08.499Z,18.57
2023-01-18T09:42:39.449Z,17.70
2023-01-18T09:45:03.599Z,18.50
2023-01-18T09:47:30.893Z,18.03
2023-01-18T09:49:57.888Z,15.43
2023-01-18T09:52:31.762Z,16.43
2023-01-18T09:55:06.019Z,18.67
2023-01-18T09:57:44.743Z,16.97
2023-01-18T10:00:21.660Z,33.50
2023-01-18T10:02:48.680Z,25.00
2023-01-18T10:05:18.336Z,21.50
2023-01-18T10:08:02.607Z,21.50
2023-01-18T10:10:28.436Z,22.77
2023-01-18T10:13:01.559Z,17.83
2023-01-18T10:15:30.138Z,18.57
2023-01-18T10:17:57.672Z,14.27
2023-01-18T10:20:33.830Z,20.47
2023-01-18T10:23:03.120Z,16.33
2023-01-18T10:25:34.450Z,15.77
2023-01-18T10:28:25.269Z,19.27
2023-01-18T10:31:03.916Z,16.03
2023-01-18T10:33:32.285Z,15.40
2023-01-18T10:36:00.470Z,13.47
2023-01-18T10:38:27.500Z,14.80
2023-01-18T10:40:59.474Z,13.77
2023-01-18T10:43:25.855Z,13.70
2023-01-18T10:45:49.488Z,16.93
2023-01-18T10:48:32.933Z,14.10
2023-01-18T10:50:59.940Z,14.10
2023-01-18T10:53:31.016Z,14.00
2023-01-18T10:56:02.225Z,17.37
2023-01-18T10:58:31.589Z,18.80
2023-01-18T11:00:56.453Z,15.43
2023-01-18T11:03:23.537Z,22.37
2023-01-18T11:05:47.683Z,16.67
2023-01-18T11:08:22.623Z,16.30
2023-01-18T11:10:47.369Z,19.50
2023-01-18T11:13:28.859Z,19.73
2023-01-18T11:16:12.828Z,20.43
2023-01-18T11:18:36.622Z,19.23
2023-01-18T11:21:00.233Z,19.20
2023-01-18T11:23:27.043Z,21.53
2023-01-18T11:25:58.554Z,19.70
2023-01-18T11:28:27.488Z,22.20
2023-01-18T11:30:59.086Z,18.10
2023-01-18T11:33:25.739Z,19.67
2023-01-18T11:35:55.967Z,22.23
2023-01-18T11:38:20.696Z,16.03
2023-01-18T11:40:44.525Z,25.40
2023-01-18T11:43:17.444Z,17.40
2023-01-18T11:45:49.115Z,16.97
2023-01-18T11:48:24.268Z,21.13
2023-01-18T11:50:54.240Z,16.60
2023-01-18T11:53:32.007Z,15.53
2023-01-18T11:56:06.125Z,18.27
2023-01-18T11:58:32.392Z,22.57
2023-01-18T12:01:22.772Z,15.73
2023-01-18T12:03:57.370Z,18.37
2023-01-18T12:06:38.906Z,28.57
2023-01-18T12:09:20.278Z,26.73
2023-01-18T12:12:13.275Z,20.37
2023-01-18T12:15:01.037Z,22.33
2023-01-18T12:17:46.786Z,22.60
2023-01-18T12:20:28.899Z,23.03
2023-01-18T12:23:24.602Z,23.53
2023-01-18T12:26:12.086Z,18.43
2023-01-18T12:28:59.416Z,24.63
2023-01-18T12:31:37.065Z,22.37
2023-01-18T12:34:13.728Z,23.40
2023-01-18T12:37:15.769Z,23.57
2023-01-18T12:39:55.854Z,24.03
2023-01-18T12:42:33.055Z,20.33
2023-01-18T12:45:11.072Z,26.97
2023-01-18T12:47:39.361Z,22.23
2023-01-18T12:50:17.267Z,25.40
2023-01-18T12:52:47.251Z,23.57
2023-01-18T12:55:21.332Z,20.10
2023-01-18T12:57:46.696Z,20.33
2023-01-18T13:00:18.968Z,20.40
2023-01-18T13:02:45.804Z,22.50
2023-01-18T13:05:19.092Z,25.13
2023-01-18T13:07:47.630Z,24.37
2023-01-18T13:10:20.207Z,24.13
2023-01-18T13:12:44.886Z,25.30
2023-01-18T13:15:24.898Z,23.10
2023-01-18T13:17:57.769Z,26.37
2023-01-18T13:20:35.022Z,21.97
2023-01-18T13:23:12.093Z,24.27
2023-01-18T13:25:49.697Z,22.33
2023-01-18T13:28:20.518Z,24.37
2023-01-18T13:30:56.466Z,22.87
2023-01-18T13:33:24.480Z,20.77
2023-01-18T13:35:56.443Z,19.40
2023-01-18T13:38:40.173Z,22.57
2023-01-18T13:41:07.049Z,20.83
2023-01-18T13:44:05.318Z,26.23
2023-01-18T13:46:31.336Z,26.20
2023-01-18T13:48:57.296Z,20.10
2023-01-18T13:51:57.614Z,21.27
2023-01-18T13:55:23.859Z,19.80
2023-01-18T13:57:55.756Z,23.00
2023-01-18T14:00:25.695Z,24.97
2023-01-18T14:02:54.594Z,57.53
2023-01-18T14:05:25.337Z,34.40
2023-01-18T14:07:54.470Z,38.87
2023-01-18T14:10:31.791Z,42.53
2023-01-18T14:12:57.744Z,45.17
2023-01-18T14:15:28.991Z,43.90
2023-01-18T14:17:58.589Z,46.17
2023-01-18T14:21:10.850Z,35.23
2023-01-18T14:24:09.057Z,30.17
2023-01-18T14:26:36.372Z,31.73
2023-01-18T14:29:03.611Z,24.90
2023-01-18T14:31:32.255Z,26.17
2023-01-18T14:33:55.846Z,20.30
2023-01-18T14:36:23.404Z,25.43
2023-01-18T14:38:46.946Z,25.30
2023-01-18T14:41:18.044Z,31.97
2023-01-18T14:43:45.927Z,40.93
2023-01-18T14:46:15.942Z,28.17
2023-01-18T14:48:49.089Z,27.03
2023-01-18T14:51:19.137Z,27.40
2023-01-18T14:53:48.097Z,26.93
2023-01-18T14:56:20.828Z,27.00
2023-01-18T14:58:52.509Z,22.33
2023-01-18T15:01:30.613Z,20.43
2023-01-18T15:03:56.130Z,29.10
2023-01-18T15:06:29.354Z,26.67
2023-01-18T15:08:53.229Z,17.27
2023-01-18T15:11:18.295Z,19.67
2023-01-18T15:13:49.120Z,18.20
2023-01-18T15:16:13.438Z,22.63
2023-01-18T15:18:37.000Z,20.57
2023-01-18T15:21:06.248Z,21.93
2023-01-18T15:23:31.081Z,21.80
2023-01-18T15:25:56.730Z,21.97
2023-01-18T15:28:24.227Z,25.77
2023-01-18T15:30:52.032Z,24.73
2023-01-18T15:33:15.940Z,23.40
2023-01-18T15:35:39.682Z,25.37
2023-01-18T15:38:05.046Z,26.13
2023-01-18T15:40:31.051Z,22.77
2023-01-18T15:43:08.461Z,23.47
2023-01-18T15:45:35.802Z,23.87
2023-01-18T15:48:02.753Z,23.13
2023-01-18T15:50:32.816Z,23.03
2023-01-18T15:53:11.576Z,22.37
2023-01-18T15:55:40.011Z,21.67
2023-01-18T15:58:07.644Z,26.80
2023-01-18T16:00:41.119Z,24.87
2023-01-18T16:03:05.988Z,22.73
2023-01-18T16:05:29.594Z,24.43
2023-01-18T16:08:16.361Z,29.97
2023-01-18T16:10:51.009Z,28.03
2023-01-18T16:13:42.708Z,33.23
2023-01-18T16:16:15.500Z,28.80
2023-01-18T16:18:39.186Z,33.80
2023-01-18T16:21:03.729Z,31.47
2023-01-18T16:23:27.519Z,30.63
2023-01-18T16:25:53.462Z,27.33
2023-01-18T16:28:23.762Z,27.80
2023-01-18T16:30:51.900Z,27.07
2023-01-18T16:33:19.132Z,26.17
2023-01-18T16:35:42.991Z,22.40
2023-01-18T16:38:11.211Z,27.70
2023-01-18T16:40:39.475Z,25.43
2023-01-18T16:43:05.934Z,24.03
2023-01-18T16:45:30.869Z,23.43
2023-01-18T16:47:54.387Z,22.17
2023-01-18T16:50:20.368Z,28.00
2023-01-18T16:52:44.724Z,23.27
2023-01-18T16:55:10.902Z,30.43
2023-01-18T16:57:34.555Z,34.07
2023-01-18T16:59:58.113Z,49.57
2023-01-18T17:02:22.033Z,32.63
2023-01-18T17:04:46.688Z,29.27
2023-01-18T17:07:12.196Z,31.20
2023-01-18T17:09:47.155Z,29.77
2023-01-18T17:12:11.948Z,24.83
2023-01-18T17:14:35.523Z,29.23
2023-01-18T17:16:59.779Z,34.40
2023-01-18T17:19:24.626Z,35.27
2023-01-18T17:21:49.472Z,39.70
2023-01-18T17:24:15.297Z,47.47
2023-01-18T17:26:40.261Z,37.10
2023-01-18T17:29:05.181Z,43.23
2023-01-18T17:31:29.660Z,39.80
2023-01-18T17:33:53.162Z,47.00
2023-01-18T17:36:16.882Z,43.07
2023-01-18T17:38:40.437Z,46.97
2023-01-18T17:41:07.122Z,45.10
2023-01-18T17:43:34.380Z,39.17
2023-01-18T17:46:01.903Z,39.50
2023-01-18T17:48:25.789Z,31.50
2023-01-18T17:50:49.468Z,37.00
2023-01-18T17:53:13.014Z,28.17
2023-01-18T17:55:36.989Z,32.80
2023-01-18T17:58:01.949Z,35.17
2023-01-18T18:00:25.598Z,30.03
2023-01-18T18:02:52.762Z,37.27
2023-01-18T18:05:16.503Z,29.17
2023-01-18T18:07:40.265Z,37.40
2023-01-18T18:10:04.019Z,29.67
2023-01-18T18:12:28.126Z,26.50
2023-01-18T18:14:55.818Z,27.90
2023-01-18T18:17:19.544Z,36.00
2023-01-18T18:19:43.199Z,33.27
2023-01-18T18:22:07.230Z,33.03
2023-01-18T18:24:30.809Z,34.37
2023-01-18T18:26:54.567Z,28.27
2023-01-18T18:29:18.977Z,35.87
2023-01-18T18:31:44.627Z,30.87
2023-01-18T18:34:08.724Z,33.53
2023-01-18T18:36:32.579Z,31.53
2023-01-18T18:38:56.171Z,32.30
2023-01-18T18:41:19.983Z,36.77
2023-01-18T18:43:43.591Z,43.13
2023-01-18T18:46:07.438Z,48.07
2023-01-18T18:48:32.433Z,39.43
2023-01-18T18:50:56.265Z,41.00
2023-01-18T18:53:23.865Z,44.30
2023-01-18T18:55:59.347Z,40.50
2023-01-18T18:58:23.102Z,48.93
2023-01-18T19:00:47.202Z,48.70
2023-01-18T19:03:11.273Z,46.10
2023-01-18T19:05:37.182Z,45.33
2023-01-18T19:08:01.445Z,58.27
2023-01-18T19:10:27.542Z,48.47
2023-01-18T19:12:51.091Z,56.97
2023-01-18T19:15:14.788Z,46.43
2023-01-18T19:17:38.357Z,46.20
2023-01-18T19:20:01.977Z,47.57
2023-01-18T19:22:27.682Z,44.27
2023-01-18T19:24:51.249Z,52.83
2023-01-18T19:27:14.985Z,53.60
2023-01-18T19:29:39.409Z,48.33
2023-01-18T19:32:02.932Z,47.97
2023-01-18T19:34:27.088Z,52.83
2023-01-18T19:36:51.470Z,58.17
2023-01-18T19:39:22.367Z,49.23
2023-01-18T19:41:49.629Z,56.43
2023-01-18T19:44:13.233Z,53.23
2023-01-18T19:46:37.351Z,52.77
2023-01-18T19:49:02.757Z,47.40
2023-01-18T19:51:27.489Z,50.57
2023-01-18T19:53:51.230Z,53.70
2023-01-18T19:56:16.687Z,50.77
2023-01-18T19:58:41.830Z,54.13
2023-01-18T20:01:10.507Z,60.00
2023-01-18T20:03:34.466Z,86.50
2023-01-18T20:05:58.442Z,88.33
2023-01-18T20:08:22.558Z,96.77
2023-01-18T20:10:46.153Z,98.07
2023-01-18T20:13:11.528Z,83.77
2023-01-18T20:15:36.782Z,81.27
2023-01-18T20:18:01.037Z,73.90
2023-01-18T20:20:32.461Z,99.73
2023-01-18T20:22:57.260Z,81.57
2023-01-18T20:25:22.060Z,74.43
2023-01-18T20:27:46.433Z,68.10
2023-01-18T20:30:13.558Z,69.87
2023-01-18T20:32:37.958Z,76.23
2023-01-18T20:35:01.504Z,74.33
2023-01-18T20:37:25.693Z,76.30
2023-01-18T20:39:50.242Z,73.07
2023-01-18T20:42:15.451Z,72.87
2023-01-18T20:44:39.096Z,76.83
2023-01-18T20:47:04.924Z,81.03
2023-01-18T20:49:43.754Z,71.67
2023-01-18T20:52:07.757Z,72.83
2023-01-18T20:54:31.284Z,68.70
2023-01-18T20:56:55.440Z,64.47
2023-01-18T20:59:20.163Z,62.43
2023-01-18T21:01:44.083Z,59.00
2023-01-18T21:04:09.301Z,59.57
2023-01-18T21:06:34.117Z,62.80
2023-01-18T21:08:59.806Z,58.40
2023-01-18T21:11:25.395Z,62.43
2023-01-18T21:13:49.670Z,65.10
2023-01-18T21:16:13.827Z,70.57
2023-01-18T21:18:39.572Z,63.43
2023-01-18T21:21:05.900Z,69.10
2023-01-18T21:23:30.015Z,59.47
2023-01-18T21:25:55.953Z,57.67
2023-01-18T21:28:19.791Z,59.83
2023-01-18T21:30:43.446Z,61.23
2023-01-18T21:33:07.118Z,57.03
2023-01-18T21:35:31.089Z,62.20
2023-01-18T21:37:56.184Z,57.17
2023-01-18T21:40:20.064Z,60.03
2023-01-18T21:43:00.022Z,61.03
2023-01-18T21:45:40.864Z,54.47
2023-01-18T21:48:08.374Z,61.73
2023-01-18T21:50:49.253Z,62.57
2023-01-18T21:53:34.106Z,56.33
2023-01-18T21:55:57.666Z,52.87
2023-01-18T21:58:38.807Z,53.27
2023-01-18T22:01:02.486Z,48.93
2023-01-18T22:03:26.149Z,53.67
2023-01-18T22:05:49.769Z,52.00
2023-01-18T22:08:13.336Z,51.77
2023-01-18T22:10:38.439Z,50.83
2023-01-18T22:13:01.963Z,51.07
2023-01-18T22:15:25.563Z,53.67
2023-01-18T22:17:49.156Z,56.97
2023-01-18T22:20:13.832Z,49.77
2023-01-18T22:22:37.779Z,49.97
2023-01-18T22:25:02.370Z,53.67
2023-01-18T22:27:27.332Z,54.00
2023-01-18T22:29:51.210Z,49.63
2023-01-18T22:32:14.751Z,50.30
2023-01-18T22:34:38.375Z,45.37
2023-01-18T22:37:03.203Z,45.23
2023-01-18T22:39:26.864Z,42.27
2023-01-18T22:41:50.411Z,46.07
2023-01-18T22:44:17.417Z,42.37
2023-01-18T22:46:40.962Z,48.27
2023-01-18T22:49:04.703Z,53.57
2023-01-18T22:51:28.390Z,45.50
2023-01-18T22:53:52.563Z,49.13
2023-01-18T22:56:20.020Z,40.10
2023-01-18T22:58:43.761Z,45.90
2023-01-18T23:01:21.389Z,39.80
2023-01-18T23:03:45.492Z,44.50
2023-01-18T23:06:10.567Z,45.63
2023-01-18T23:08:42.525Z,46.10
2023-01-18T23:11:06.204Z,43.77
2023-01-18T23:13:29.735Z,40.77
2023-01-18T23:16:10.378Z,44.70
2023-01-18T23:18:35.378Z,36.60
2023-01-18T23:21:00.028Z,39.83
2023-01-18T23:23:23.677Z,43.30
2023-01-18T23:25:47.265Z,42.93
2023-01-18T23:28:10.860Z,40.10
2023-01-18T23:30:34.488Z,40.33
2023-01-18T23:32:58.204Z,43.73
2023-01-18T23:35:23.141Z,40.03
2023-01-18T23:37:46.757Z,37.87
2023-01-18T23:40:30.956Z,39.93
2023-01-18T23:43:12.453Z,37.07
2023-01-18T23:45:53.304Z,42.77
2023-01-18T23:48:36.385Z,43.50
2023-01-18T23:51:18.829Z,39.23
2023-01-18T23:53:59.964Z,42.10
2023-01-18T23:56:23.605Z,37.90
2023-01-18T23:58:47.109Z,42.43
